Round Prairie, North Dakota
Current Conditions -  °F | °C
As of 12:52 PM on Saturday 20 Dec 2014 (Local Time) from KISN Reporting Station
Clear Clear  
Wind Chill: 25°   Ceiling: Unl
Heat Index: 32°   Visibility: 10mi
Dew Point: 29°   Wind: 8mph
Humidity: 88%   Direction: 200°SSW
Pressure: 29.8"   Gusts: NA
Location:  48.3082°N, 103.697°W
Report Text: KISN 201852Z AUTO 20007KT 10SM CLR 00/M02 A2980 RMK AO2 SLP122 T00001017
Loading
Personal Weather Stations






























Interactive Weather Map New forecast layout! Learn more

10-Day Weather Forecast

Advertisements
Track Severe Weather on mobile